Time;durP1;ratioP1;P1;durP2;ratioP2;P2;SDS_P1;SDS_P2;PMS_P1;PMS_P2;Temp;Humidity;BMP_temperature;BMP_pressure;BME280_temperature;BME280_humidity;BME280_pressure;Samples;Min_cycle;Max_cycle;Signal;HPM_P1;HPM_P2
2021/12/05 00:23:00;;;;;;;0.77;0.77;;;4.80;99.90;;;;;;5084318;28;20055;-75
2021/12/05 00:25:29;;;;;;;2.72;0.95;;;4.80;99.90;;;;;;5102738;28;20131;-75
2021/12/05 00:28:22;;;;;;;5.43;0.88;;;4.80;99.90;;;;;;5102532;28;20047;-75
2021/12/05 00:37:09;;;;;;;1.35;1.02;;;4.80;99.90;;;;;;5086294;28;20055;-75
2021/12/05 00:39:41;;;;;;;1.05;1.05;;;4.90;99.90;;;;;;5085647;28;20565;-75
2021/12/05 00:42:52;;;;;;;2.72;1.63;;;4.90;99.90;;;;;;5067824;28;20048;-75
2021/12/05 00:50:37;;;;;;;3.13;2.03;;;4.90;99.90;;;;;;5085799;28;20044;-75
2021/12/05 01:07:00;;;;;;;0.55;0.43;;;5.00;99.90;;;;;;5068027;28;20056;-75
2021/12/05 01:09:32;;;;;;;3.35;1.42;;;5.00;99.90;;;;;;5067568;28;20059;-75
2021/12/05 01:17:18;;;;;;;3.40;1.60;;;5.10;99.90;;;;;;5085255;28;20054;-75
2021/12/05 01:19:44;;;;;;;0.95;0.88;;;5.10;99.90;;;;;;5084634;28;20070;-75
2021/12/05 01:22:12;;;;;;;2.72;1.27;;;5.10;99.90;;;;;;5084952;28;20040;-75
2021/12/05 01:24:52;;;;;;;0.40;0.40;;;5.10;99.90;;;;;;5084997;28;20039;-75
2021/12/05 01:27:34;;;;;;;1.80;0.80;;;5.10;99.90;;;;;;5067245;28;20089;-75
2021/12/05 01:32:59;;;;;;;0.28;0.28;;;5.20;99.90;;;;;;5104962;28;20065;-75
2021/12/05 01:36:09;;;;;;;0.63;0.57;;;5.20;99.90;;;;;;5087197;28;20582;-75
2021/12/05 01:38:32;;;;;;;12.43;1.88;;;5.20;99.90;;;;;;5084065;28;20040;-75
2021/12/05 01:41:20;;;;;;;0.75;0.55;;;5.20;99.90;;;;;;5086906;28;20048;-75
2021/12/05 01:44:19;;;;;;;0.98;0.93;;;5.20;99.90;;;;;;5087271;28;20035;-75
2021/12/05 01:49:37;;;;;;;1.25;0.90;;;5.20;99.90;;;;;;5103635;28;20047;-75
2021/12/05 01:52:32;;;;;;;8.30;1.42;;;5.20;99.90;;;;;;5086246;28;20062;-75
2021/12/05 01:58:12;;;;;;;1.10;1.00;;;5.20;99.90;;;;;;5104921;28;20062;-75
2021/12/05 02:09:27;;;;;;;7.78;2.08;;;5.20;99.90;;;;;;5104492;28;20559;-75
2021/12/05 02:12:12;;;;;;;1.08;0.90;;;5.20;99.90;;;;;;5086870;28;20160;-76
2021/12/05 02:34:03;;;;;;;3.60;1.58;;;5.10;99.90;;;;;;5083346;28;20122;-75
2021/12/05 02:39:25;;;;;;;0.90;0.90;;;5.00;99.90;;;;;;5083273;28;20578;-75
2021/12/05 02:41:53;;;;;;;20.40;1.23;;;4.90;99.90;;;;;;5083283;28;20105;-76
2021/12/05 02:44:22;;;;;;;7.65;2.22;;;4.90;99.90;;;;;;5083889;28;20490;-75
2021/12/05 02:47:02;;;;;;;1.42;1.38;;;4.80;99.90;;;;;;5065350;28;20056;-75
2021/12/05 02:49:30;;;;;;;6.57;1.52;;;4.80;99.90;;;;;;5082817;28;20081;-75
2021/12/05 02:52:02;;;;;;;1.00;0.88;;;4.80;99.90;;;;;;5083414;28;20063;-76
2021/12/05 02:54:32;;;;;;;1.33;1.33;;;4.80;99.90;;;;;;5083328;28;20322;-75
2021/12/05 02:56:59;;;;;;;2.45;1.58;;;4.80;99.90;;;;;;5064818;28;20038;-75
2021/12/05 03:01:58;;;;;;;1.60;1.50;;;4.70;99.90;;;;;;5082996;28;20071;-76
2021/12/05 03:04:28;;;;;;;3.50;3.25;;;4.70;99.90;;;;;;5064221;28;20529;-76
2021/12/05 03:06:55;;;;;;;3.25;2.50;;;4.70;99.90;;;;;;5082845;28;20256;-76
2021/12/05 03:09:22;;;;;;;1.67;1.40;;;4.70;99.90;;;;;;5083801;28;20462;-77
2021/12/05 03:11:49;;;;;;;5.75;2.20;;;4.80;99.90;;;;;;5083735;28;20073;-75
2021/12/05 03:14:15;;;;;;;1.67;1.63;;;4.70;99.90;;;;;;5082837;28;20366;-75
2021/12/05 03:16:42;;;;;;;2.42;2.22;;;4.80;99.90;;;;;;5065021;28;20039;-75
2021/12/05 03:19:09;;;;;;;1.40;1.40;;;4.80;99.90;;;;;;5063835;28;20059;-75
2021/12/05 03:21:36;;;;;;;1.83;1.58;;;4.80;99.90;;;;;;5065031;28;20044;-75
2021/12/05 03:24:03;;;;;;;6.15;2.78;;;4.80;99.90;;;;;;5083130;28;20044;-75
2021/12/05 03:26:32;;;;;;;1.42;1.33;;;4.80;99.90;;;;;;5083065;28;20060;-75
2021/12/05 03:28:58;;;;;;;2.80;2.42;;;4.80;99.90;;;;;;5091345;28;20039;-75
2021/12/05 03:31:31;;;;;;;1.27;1.23;;;4.80;99.90;;;;;;5103282;28;20497;-76
2021/12/05 03:33:57;;;;;;;1.40;1.30;;;4.90;99.90;;;;;;5067337;28;20043;-75
2021/12/05 03:36:27;;;;;;;1.50;1.50;;;4.80;99.90;;;;;;5103309;28;20044;-75
2021/12/05 03:38:52;;;;;;;3.33;2.53;;;4.80;99.90;;;;;;5085188;28;20042;-76
2021/12/05 03:41:19;;;;;;;2.70;2.50;;;4.80;99.90;;;;;;5104261;28;20035;-75
2021/12/05 03:43:47;;;;;;;1.23;1.23;;;4.80;99.90;;;;;;5085209;28;20138;-75
2021/12/05 03:46:14;;;;;;;4.25;2.33;;;4.80;99.90;;;;;;5103057;28;20087;-75
2021/12/05 03:48:49;;;;;;;3.35;2.95;;;4.80;99.90;;;;;;5083802;28;20052;-75
2021/12/05 03:51:18;;;;;;;3.40;3.20;;;4.70;99.90;;;;;;5084938;28;20035;-75
2021/12/05 03:53:44;;;;;;;2.65;2.45;;;4.70;99.90;;;;;;5103055;28;20122;-75
2021/12/05 03:56:10;;;;;;;1.77;1.67;;;4.70;99.90;;;;;;5103321;28;20032;-75
2021/12/05 03:58:38;;;;;;;2.30;2.10;;;4.70;99.90;;;;;;5103345;28;20035;-75
2021/12/05 04:01:05;;;;;;;3.92;3.15;;;4.60;99.90;;;;;;5103446;28;20100;-75
2021/12/05 04:03:32;;;;;;;3.45;2.67;;;4.60;99.90;;;;;;5102340;28;20078;-75
2021/12/05 04:06:00;;;;;;;3.40;3.10;;;4.60;99.90;;;;;;5084865;28;20437;-75
2021/12/05 04:08:28;;;;;;;2.42;1.95;;;4.60;99.90;;;;;;5087235;28;20096;-75
2021/12/05 04:11:04;;;;;;;2.40;2.25;;;4.60;99.90;;;;;;5088422;28;20043;-75
2021/12/05 04:13:31;;;;;;;2.95;2.85;;;4.50;99.90;;;;;;5106944;28;20046;-75
2021/12/05 04:16:00;;;;;;;2.00;1.90;;;4.50;99.90;;;;;;5088575;28;20138;-75
2021/12/05 04:18:26;;;;;;;2.30;2.15;;;4.50;99.90;;;;;;5071170;28;20050;-75
2021/12/05 04:20:52;;;;;;;3.22;2.13;;;4.40;99.90;;;;;;5088272;28;20126;-76
2021/12/05 04:23:19;;;;;;;2.95;2.63;;;4.40;99.90;;;;;;5089161;28;20039;-75
2021/12/05 04:25:48;;;;;;;10.18;2.05;;;4.40;99.90;;;;;;5106766;28;20062;-75
2021/12/05 04:28:14;;;;;;;3.15;2.67;;;4.40;99.90;;;;;;5106911;28;20078;-75
2021/12/05 04:30:40;;;;;;;14.55;2.65;;;4.40;99.90;;;;;;5088576;28;20059;-75
2021/12/05 04:33:06;;;;;;;3.70;3.40;;;4.30;99.90;;;;;;5105181;28;20255;-75
2021/12/05 04:35:32;;;;;;;2.85;1.60;;;4.30;99.90;;;;;;5106622;28;20082;-75
2021/12/05 04:37:58;;;;;;;11.97;2.17;;;4.30;99.90;;;;;;5106187;28;20044;-75
2021/12/05 04:40:23;;;;;;;1.80;1.70;;;4.30;99.90;;;;;;5088683;28;20405;-76
2021/12/05 04:42:49;;;;;;;8.20;3.30;;;4.30;99.90;;;;;;5106882;28;20032;-75
2021/12/05 04:45:23;;;;;;;2.83;2.60;;;4.30;99.90;;;;;;5105865;28;20043;-75
2021/12/05 04:47:49;;;;;;;2.33;2.17;;;4.30;99.90;;;;;;5106212;28;20050;-75
2021/12/05 04:50:16;;;;;;;4.33;3.27;;;4.30;99.90;;;;;;5106099;28;20032;-75
2021/12/05 04:52:42;;;;;;;2.63;2.43;;;4.30;99.90;;;;;;5088444;28;20421;-75
2021/12/05 04:55:10;;;;;;;6.70;4.67;;;4.30;99.90;;;;;;5087518;28;20323;-75
2021/12/05 04:57:36;;;;;;;4.13;3.30;;;4.40;99.90;;;;;;5106268;28;20092;-75
2021/12/05 05:00:09;;;;;;;4.40;3.10;;;4.40;99.90;;;;;;5087865;28;20043;-75
2021/12/05 05:02:34;;;;;;;2.35;2.15;;;4.40;99.90;;;;;;5104952;28;20039;-75
2021/12/05 05:05:00;;;;;;;11.88;5.07;;;4.50;99.90;;;;;;5086994;28;20054;-75
2021/12/05 05:07:27;;;;;;;3.22;3.00;;;4.40;99.90;;;;;;5087884;28;20053;-75
2021/12/05 05:10:00;;;;;;;5.03;4.60;;;4.50;99.90;;;;;;5105663;28;20039;-76
2021/12/05 05:12:26;;;;;;;5.77;3.60;;;4.50;99.90;;;;;;5105697;28;20132;-75
2021/12/05 05:14:53;;;;;;;4.38;3.97;;;4.50;99.90;;;;;;5105578;28;20050;-76
2021/12/05 05:17:20;;;;;;;5.80;4.50;;;4.50;99.90;;;;;;5105116;28;20194;-75
2021/12/05 05:19:50;;;;;;;7.55;4.68;;;4.60;99.90;;;;;;5106150;28;20168;-75
2021/12/05 05:22:37;;;;;;;12.48;4.85;;;4.60;99.90;;;;;;5087460;28;20044;-75
2021/12/05 05:28:04;;;;;;;5.63;4.65;;;4.60;99.90;;;;;;5087990;28;20487;-75
2021/12/05 05:46:37;;;;;;;8.60;5.03;;;4.70;99.90;;;;;;5066458;28;20052;-76
2021/12/05 05:51:37;;;;;;;6.90;5.57;;;4.70;99.90;;;;;;5085110;28;20048;-75
2021/12/05 05:54:03;;;;;;;5.43;4.55;;;4.70;99.90;;;;;;5084295;28;20559;-76
2021/12/05 05:56:30;;;;;;;4.75;4.18;;;4.70;99.90;;;;;;5066594;28;20131;-76
2021/12/05 05:59:03;;;;;;;6.75;4.63;;;4.70;99.90;;;;;;5065968;28;20106;-76
2021/12/05 06:04:02;;;;;;;5.00;4.15;;;4.70;99.90;;;;;;5083838;28;20040;-75
2021/12/05 06:06:30;;;;;;;4.53;4.13;;;4.70;99.90;;;;;;5084707;28;20044;-75
2021/12/05 06:08:56;;;;;;;4.13;3.70;;;4.70;99.90;;;;;;5084254;28;20517;-76
2021/12/05 06:11:22;;;;;;;4.50;3.83;;;4.70;99.90;;;;;;5066286;28;20048;-76
2021/12/05 06:13:47;;;;;;;7.10;3.97;;;4.70;99.90;;;;;;5084771;28;20058;-75
2021/12/05 06:16:15;;;;;;;6.65;5.38;;;4.70;99.90;;;;;;5084213;28;20032;-75
2021/12/05 06:18:42;;;;;;;8.35;4.55;;;4.60;99.90;;;;;;5083677;28;20044;-75
2021/12/05 06:21:08;;;;;;;2.78;2.55;;;4.60;99.90;;;;;;5083831;28;20036;-75
2021/12/05 06:23:35;;;;;;;3.78;3.53;;;4.60;99.90;;;;;;5084417;28;20383;-75
2021/12/05 06:26:01;;;;;;;9.40;5.88;;;4.60;99.90;;;;;;5065592;28;20055;-75
2021/12/05 06:28:33;;;;;;;7.28;3.60;;;4.60;99.90;;;;;;5069852;28;20044;-75
2021/12/05 06:47:06;;;;;;;8.60;3.40;;;4.60;99.90;;;;;;5102502;28;20140;-76
2021/12/05 06:49:32;;;;;;;6.20;4.33;;;4.60;99.90;;;;;;5085851;28;20071;-75
2021/12/05 06:51:58;;;;;;;13.43;4.43;;;4.60;99.90;;;;;;5103376;28;20043;-76
2021/12/05 06:54:24;;;;;;;3.75;3.33;;;4.60;99.90;;;;;;5103952;28;20043;-76
2021/12/05 06:56:50;;;;;;;3.92;3.63;;;4.60;99.90;;;;;;5086392;28;20443;-75
2021/12/05 06:59:16;;;;;;;3.88;3.55;;;4.60;99.90;;;;;;5086485;28;20044;-75
2021/12/05 07:01:42;;;;;;;2.38;2.22;;;4.60;99.90;;;;;;5102850;28;20067;-75
2021/12/05 07:07:09;;;;;;;5.40;5.00;;;4.60;99.90;;;;;;5062107;28;20665;-76
2021/12/05 07:09:35;;;;;;;4.70;3.67;;;4.50;99.90;;;;;;5103782;28;20171;-75
2021/12/05 07:22:19;;;;;;;8.43;4.75;;;4.50;99.90;;;;;;5103081;28;20541;-76
2021/12/05 07:24:49;;;;;;;9.90;5.95;;;4.50;99.90;;;;;;5103363;28;20149;-76
2021/12/05 07:40:55;;;;;;;5.53;4.05;;;4.60;99.90;;;;;;5082574;28;20058;-76
2021/12/05 07:43:22;;;;;;;3.08;2.83;;;4.50;99.90;;;;;;5069279;28;20052;-76
2021/12/05 07:46:01;;;;;;;3.40;3.08;;;4.50;99.90;;;;;;5087917;28;20511;-75
2021/12/05 07:48:33;;;;;;;1.85;1.75;;;4.60;99.90;;;;;;5051953;28;20131;-75
2021/12/05 07:51:15;;;;;;;3.20;3.00;;;4.60;99.90;;;;;;5068313;28;20044;-75
2021/12/05 07:53:59;;;;;;;4.60;3.83;;;4.60;99.90;;;;;;5086014;28;20764;-76
2021/12/05 07:56:43;;;;;;;6.37;2.67;;;4.60;99.90;;;;;;5068363;28;20289;-74
2021/12/05 08:15:42;;;;;;;13.03;4.00;;;4.60;99.90;;;;;;5068762;28;20048;-76
2021/12/05 08:18:07;;;;;;;5.60;3.92;;;4.60;99.90;;;;;;5085481;28;20129;-77
2021/12/05 08:20:37;;;;;;;3.38;2.63;;;4.60;99.90;;;;;;5086814;28;20170;-76
2021/12/05 08:23:04;;;;;;;8.55;4.45;;;4.70;99.90;;;;;;5086712;28;20079;-76
2021/12/05 08:25:33;;;;;;;5.35;3.28;;;4.70;99.90;;;;;;5086501;28;20056;-76
2021/12/05 08:31:01;;;;;;;4.03;3.67;;;4.70;99.90;;;;;;5077596;28;20078;-76
2021/12/05 08:36:33;;;;;;;4.20;3.85;;;4.70;99.90;;;;;;5088928;28;20386;-76
2021/12/05 08:42:01;;;;;;;9.93;3.40;;;4.70;99.90;;;;;;5083877;28;20566;-76
2021/12/05 09:20:39;;;;;;;2.38;2.25;;;4.90;99.90;;;;;;5087162;28;20185;-77
2021/12/05 09:28:24;;;;;;;4.65;2.70;;;4.90;99.90;;;;;;5105588;28;20047;-78
2021/12/05 10:09:01;;;;;;;8.65;5.40;;;5.00;99.90;;;;;;5105589;28;20043;-72
2021/12/05 10:11:41;;;;;;;4.70;4.35;;;5.00;99.90;;;;;;5069786;28;20036;-73
2021/12/05 10:14:25;;;;;;;4.22;3.83;;;5.00;99.90;;;;;;5083104;28;20056;-73
2021/12/05 10:17:36;;;;;;;4.57;4.28;;;5.00;99.90;;;;;;5065899;28;20035;-73
2021/12/05 10:20:25;;;;;;;4.88;4.47;;;5.00;99.90;;;;;;5083809;28;20055;-73
2021/12/05 10:33:45;;;;;;;16.85;3.38;;;5.00;99.90;;;;;;5104911;28;20050;-74
2021/12/05 10:38:50;;;;;;;4.20;3.80;;;5.00;99.90;;;;;;5086615;28;20047;-74
2021/12/05 10:44:10;;;;;;;8.98;5.38;;;5.00;99.90;;;;;;5086436;28;20445;-74
2021/12/05 10:46:39;;;;;;;4.13;3.90;;;5.10;99.90;;;;;;5085351;28;20067;-74
2021/12/05 10:49:13;;;;;;;7.90;6.15;;;5.10;99.90;;;;;;5104248;28;20071;-75
2021/12/05 10:51:52;;;;;;;4.40;3.75;;;5.10;99.90;;;;;;5086384;28;20039;-74
2021/12/05 10:54:26;;;;;;;2.63;2.17;;;5.10;99.90;;;;;;5086360;28;20296;-74
2021/12/05 10:56:59;;;;;;;7.10;5.05;;;5.10;99.90;;;;;;5085980;28;20047;-75
2021/12/05 10:59:38;;;;;;;4.63;4.15;;;5.10;99.90;;;;;;5104400;28;20383;-76
2021/12/05 11:02:14;;;;;;;10.38;4.50;;;5.10;99.90;;;;;;5084846;28;20043;-77
2021/12/05 11:04:42;;;;;;;4.00;3.10;;;5.10;99.90;;;;;;5086169;28;20466;-73
2021/12/05 11:07:14;;;;;;;3.83;3.58;;;5.10;99.90;;;;;;5085431;28;20051;-74
2021/12/05 11:09:42;;;;;;;5.45;3.85;;;5.10;99.90;;;;;;5104231;28;20032;-75
2021/12/05 11:12:27;;;;;;;6.75;4.65;;;5.10;99.90;;;;;;5102773;28;20035;-74
2021/12/05 11:15:19;;;;;;;5.38;4.07;;;5.20;99.90;;;;;;5084464;28;20075;-74
2021/12/05 11:17:47;;;;;;;4.38;4.05;;;5.10;99.90;;;;;;5101755;28;20200;-74
2021/12/05 11:20:29;;;;;;;9.63;5.22;;;5.10;99.90;;;;;;5103722;28;20055;-74
2021/12/05 11:22:56;;;;;;;6.95;3.90;;;5.10;99.90;;;;;;5085042;28;20055;-74
2021/12/05 11:25:25;;;;;;;5.45;3.88;;;5.10;99.90;;;;;;5085058;28;20059;-75
2021/12/05 11:28:00;;;;;;;4.45;4.15;;;5.10;99.90;;;;;;5085050;28;20054;-75
2021/12/05 11:30:33;;;;;;;4.88;3.08;;;5.10;99.90;;;;;;5064828;28;20538;-75
2021/12/05 11:32:59;;;;;;;;;;;5.10;99.90;;;;;;5082035;28;20096;-74
2021/12/05 11:35:42;;;;;;;7.28;4.57;;;5.10;99.90;;;;;;5081919;28;19959;-74
2021/12/05 11:38:18;;;;;;;4.95;4.55;;;5.10;99.90;;;;;;5082512;28;20398;-75
2021/12/05 11:40:58;;;;;;;4.28;3.92;;;5.20;99.90;;;;;;5083535;28;20568;-75
2021/12/05 11:43:32;;;;;;;7.07;5.07;;;5.10;99.90;;;;;;5065485;28;20044;-75
2021/12/05 11:46:11;;;;;;;3.88;3.58;;;5.20;99.90;;;;;;5082225;28;20048;-74
2021/12/05 11:48:37;;;;;;;2.92;2.70;;;5.10;99.90;;;;;;5065152;28;20032;-74
2021/12/05 11:51:28;;;;;;;22.15;4.30;;;5.10;99.90;;;;;;5083070;28;20052;-75
2021/12/05 11:54:10;;;;;;;4.78;4.47;;;5.10;99.90;;;;;;5064863;28;20092;-75
2021/12/05 11:56:51;;;;;;;6.18;5.60;;;5.10;99.90;;;;;;5065293;28;20074;-74
2021/12/05 11:59:17;;;;;;;5.65;5.13;;;5.20;99.90;;;;;;5065676;28;20052;-74
2021/12/05 12:01:54;;;;;;;3.58;3.38;;;5.20;99.90;;;;;;5082446;28;20105;-74
2021/12/05 12:04:25;;;;;;;8.35;4.30;;;5.20;99.90;;;;;;5065138;28;20139;-75
2021/12/05 12:07:09;;;;;;;3.03;2.83;;;5.20;99.90;;;;;;5064241;28;20122;-75
2021/12/05 12:09:35;;;;;;;4.15;3.90;;;5.20;99.90;;;;;;5083268;28;20098;-74
2021/12/05 12:12:02;;;;;;;3.65;3.08;;;5.20;99.90;;;;;;5064810;28;20493;-74
2021/12/05 12:14:28;;;;;;;3.85;3.65;;;5.20;99.90;;;;;;5083032;28;20654;-75
2021/12/05 12:16:54;;;;;;;5.18;3.30;;;5.20;99.90;;;;;;5081995;28;20044;-75
2021/12/05 12:19:22;;;;;;;4.25;3.85;;;5.20;99.90;;;;;;5065518;28;20101;-74
2021/12/05 12:21:51;;;;;;;5.75;3.70;;;5.20;99.90;;;;;;5083422;28;20044;-75
2021/12/05 12:24:17;;;;;;;5.68;3.60;;;5.20;99.90;;;;;;5083543;28;20044;-74
2021/12/05 12:26:43;;;;;;;3.85;3.63;;;5.20;99.90;;;;;;5082424;28;20134;-76
2021/12/05 12:29:11;;;;;;;2.50;2.33;;;5.20;99.90;;;;;;5094361;28;20477;-75
2021/12/05 12:31:41;;;;;;;2.40;2.28;;;5.20;99.90;;;;;;5106517;28;20047;-75
2021/12/05 12:34:10;;;;;;;3.72;3.50;;;5.20;99.90;;;;;;5107045;28;20086;-75
2021/12/05 12:36:52;;;;;;;2.55;2.45;;;5.20;99.90;;;;;;5088514;28;20055;-75
2021/12/05 12:39:18;;;;;;;10.18;6.95;;;5.20;99.90;;;;;;5088834;28;20040;-76
2021/12/05 12:42:15;;;;;;;3.78;3.22;;;5.30;99.90;;;;;;5106634;28;20058;-74
2021/12/05 12:45:00;;;;;;;4.40;3.55;;;5.30;99.90;;;;;;5071027;28;20055;-74
2021/12/05 12:47:43;;;;;;;4.25;3.95;;;5.30;99.90;;;;;;5087637;28;20134;-75
2021/12/05 12:50:20;;;;;;;;;;;5.30;99.90;;;;;;5088799;28;20524;-74
2021/12/05 12:52:58;;;;;;;8.23;6.00;;;5.30;99.90;;;;;;5088852;28;20282;-75
2021/12/05 12:55:27;;;;;;;4.40;4.05;;;5.30;99.90;;;;;;5088273;28;20470;-75
2021/12/05 12:57:53;;;;;;;3.88;3.53;;;5.30;99.90;;;;;;5106068;28;20071;-75
2021/12/05 13:00:25;;;;;;;4.82;4.40;;;5.30;99.90;;;;;;5106350;28;20071;-76
2021/12/05 13:11:09;;;;;;;11.75;4.10;;;5.30;99.90;;;;;;5086919;28;20052;-73
2021/12/05 13:13:38;;;;;;;2.90;2.80;;;5.30;99.90;;;;;;5106245;28;20093;-75
2021/12/05 13:16:17;;;;;;;8.38;4.00;;;5.30;99.90;;;;;;5084282;28;20040;-74
2021/12/05 13:18:47;;;;;;;6.50;3.88;;;5.40;99.90;;;;;;5103295;28;20043;-75
2021/12/05 13:21:36;;;;;;;3.72;3.30;;;5.40;99.90;;;;;;5105013;28;20071;-74
2021/12/05 13:24:26;;;;;;;3.03;2.85;;;5.40;99.90;;;;;;5089932;28;20062;-74
2021/12/05 13:27:03;;;;;;;5.13;2.88;;;5.40;99.90;;;;;;5072009;28;20055;-75
2021/12/05 13:29:37;;;;;;;2.97;2.53;;;5.40;99.90;;;;;;5064303;28;20045;-75
2021/12/05 13:32:17;;;;;;;3.58;3.30;;;5.40;99.90;;;;;;5060934;28;20044;-75
2021/12/05 13:34:45;;;;;;;2.35;1.73;;;5.40;99.90;;;;;;5074437;28;20402;-75
2021/12/05 13:37:13;;;;;;;5.78;4.07;;;5.40;99.90;;;;;;5069941;28;20123;-75
2021/12/05 13:39:49;;;;;;;3.60;3.40;;;5.40;99.90;;;;;;5060031;28;20048;-75
2021/12/05 13:42:37;;;;;;;8.73;4.20;;;5.40;99.90;;;;;;5066673;28;20049;-74
2021/12/05 13:45:11;;;;;;;9.18;4.90;;;5.40;99.90;;;;;;5080032;28;20063;-74
2021/12/05 13:47:53;;;;;;;4.70;4.20;;;5.40;99.90;;;;;;5071613;28;20047;-74
2021/12/05 13:50:19;;;;;;;;;;;5.40;99.90;;;;;;5068183;28;20064;-80
2021/12/05 13:52:58;;;;;;;3.33;3.03;;;5.50;99.90;;;;;;5062791;28;19920;-82
2021/12/05 13:56:04;;;;;;;5.18;4.78;;;5.40;99.90;;;;;;5058819;28;20402;-79
2021/12/05 13:58:38;;;;;;;9.30;3.83;;;5.50;99.90;;;;;;5061466;28;20057;-82
2021/12/05 14:01:25;;;;;;;3.67;3.22;;;5.50;99.90;;;;;;5061085;28;20044;-79
2021/12/05 14:03:53;;;;;;;4.95;4.57;;;5.50;99.90;;;;;;5032279;28;20055;-78
2021/12/05 14:06:43;;;;;;;5.35;4.20;;;5.50;99.90;;;;;;5058884;28;20209;-78
2021/12/05 14:09:14;;;;;;;3.63;3.15;;;5.50;99.90;;;;;;5036545;28;20174;-78
2021/12/05 14:11:50;;;;;;;3.40;3.10;;;5.50;99.90;;;;;;5044235;28;20040;-80
2021/12/05 14:14:19;;;;;;;4.53;4.13;;;5.50;99.90;;;;;;5053678;28;20551;-80
2021/12/05 14:16:48;;;;;;;6.82;4.88;;;5.50;99.90;;;;;;5042104;28;20052;-79
2021/12/05 14:19:17;;;;;;;2.55;2.35;;;5.50;99.90;;;;;;5039226;28;20043;-75
2021/12/05 14:21:52;;;;;;;4.70;3.17;;;5.50;99.90;;;;;;5050336;28;20068;-80
2021/12/05 14:24:21;;;;;;;5.20;4.45;;;5.50;99.90;;;;;;5051821;28;20573;-77
2021/12/05 14:26:53;;;;;;;2.65;2.47;;;5.50;99.90;;;;;;5100396;28;20048;-81
2021/12/05 14:29:22;;;;;;;6.72;3.60;;;5.50;99.90;;;;;;5085393;28;20565;-87
2021/12/05 14:31:52;;;;;;;4.65;3.65;;;5.50;99.90;;;;;;5068120;28;20040;-79
2021/12/05 14:34:18;;;;;;;6.60;4.00;;;5.50;99.90;;;;;;5103991;28;20047;-77
2021/12/05 14:37:05;;;;;;;3.05;2.88;;;5.40;99.90;;;;;;5101934;28;20043;-79
2021/12/05 14:39:48;;;;;;;4.60;3.97;;;5.40;99.90;;;;;;5081935;28;20119;-78
2021/12/05 14:42:20;;;;;;;11.07;4.05;;;5.50;99.90;;;;;;5083146;28;20062;-78
2021/12/05 14:44:49;;;;;;;2.47;2.28;;;5.50;99.90;;;;;;5101623;28;20050;-80
2021/12/05 14:47:21;;;;;;;3.05;2.80;;;5.40;99.90;;;;;;5102472;28;20071;-80
2021/12/05 14:49:54;;;;;;;5.28;3.28;;;5.40;99.90;;;;;;5081247;28;20102;-82
2021/12/05 14:52:24;;;;;;;4.60;3.00;;;5.40;99.90;;;;;;5084617;28;20126;-82
2021/12/05 14:54:51;;;;;;;4.03;3.72;;;5.40;99.90;;;;;;5085866;28;20099;-83
2021/12/05 14:57:19;;;;;;;2.97;2.55;;;5.40;99.90;;;;;;5084526;28;20047;-81
2021/12/05 14:59:58;;;;;;;3.33;2.90;;;5.40;99.90;;;;;;5066106;28;20405;-82
2021/12/05 15:02:24;;;;;;;4.30;3.22;;;5.40;99.90;;;;;;5063859;28;20065;-76
2021/12/05 15:04:53;;;;;;;4.32;2.85;;;5.40;99.90;;;;;;5085036;28;20039;-79
2021/12/05 15:07:21;;;;;;;6.15;4.93;;;5.40;99.90;;;;;;5084069;28;20040;-79
2021/12/05 15:09:49;;;;;;;3.30;3.10;;;5.40;99.90;;;;;;5059281;28;20184;-79
2021/12/05 15:12:23;;;;;;;4.50;2.90;;;5.40;99.90;;;;;;5083969;28;20047;-79
2021/12/05 15:14:50;;;;;;;2.88;2.67;;;5.40;99.90;;;;;;5099206;28;20040;-79
2021/12/05 15:17:41;;;;;;;2.10;1.90;;;5.40;99.90;;;;;;5097081;28;20137;-80
2021/12/05 15:20:09;;;;;;;10.70;3.22;;;5.40;99.90;;;;;;5099335;28;20028;-78
2021/12/05 15:22:35;;;;;;;4.80;3.25;;;5.40;99.90;;;;;;5083636;28;20066;-79
2021/12/05 15:25:06;;;;;;;4.30;3.85;;;5.50;99.90;;;;;;5102454;28;20476;-83
2021/12/05 15:27:34;;;;;;;5.15;2.83;;;5.40;99.90;;;;;;5083313;28;20059;-80
2021/12/05 15:30:15;;;;;;;2.30;2.15;;;5.40;99.90;;;;;;5102757;28;20070;-81
2021/12/05 15:32:42;;;;;;;12.40;5.88;;;5.40;99.90;;;;;;5084617;28;20255;-80
2021/12/05 15:35:15;;;;;;;9.48;4.05;;;5.40;99.90;;;;;;5082863;28;20123;-80
2021/12/05 15:37:55;;;;;;;3.80;3.60;;;5.40;99.90;;;;;;5082094;28;20174;-77
2021/12/05 15:40:23;;;;;;;2.33;2.20;;;5.40;99.90;;;;;;5068408;28;20047;-77
2021/12/05 15:42:49;;;;;;;4.07;2.88;;;5.40;99.90;;;;;;5085160;28;20080;-79
2021/12/05 15:45:19;;;;;;;3.97;2.85;;;5.40;99.90;;;;;;5080514;28;20526;-77
2021/12/05 15:47:47;;;;;;;5.22;4.78;;;5.40;99.90;;;;;;5067433;28;20039;-78
2021/12/05 15:50:25;;;;;;;5.05;3.97;;;5.40;99.90;;;;;;5083447;28;20031;-78
2021/12/05 15:53:07;;;;;;;8.80;2.95;;;5.40;99.90;;;;;;5082204;28;20036;-80
2021/12/05 15:55:38;;;;;;;9.23;5.53;;;5.40;99.90;;;;;;5085513;28;20070;-78
2021/12/05 15:58:07;;;;;;;4.95;4.18;;;5.40;99.90;;;;;;5085694;28;20047;-80
2021/12/05 16:00:42;;;;;;;3.45;3.17;;;5.40;99.90;;;;;;5084685;28;20047;-80
2021/12/05 16:03:20;;;;;;;3.33;3.05;;;5.40;99.90;;;;;;5086432;28;20530;-76
2021/12/05 16:05:53;;;;;;;5.15;4.70;;;5.40;99.90;;;;;;5089954;28;20566;-78
2021/12/05 16:08:19;;;;;;;9.98;4.72;;;5.40;99.90;;;;;;5072967;28;20059;-77
2021/12/05 16:10:49;;;;;;;6.00;4.70;;;5.40;99.90;;;;;;5107128;28;20039;-77
2021/12/05 16:13:25;;;;;;;5.43;4.63;;;5.40;99.90;;;;;;5106667;28;20043;-77
2021/12/05 16:15:54;;;;;;;4.72;4.32;;;5.40;99.90;;;;;;5105888;28;20052;-78
2021/12/05 16:18:29;;;;;;;4.15;3.88;;;5.40;99.90;;;;;;5080797;28;20036;-80
2021/12/05 16:21:01;;;;;;;6.13;5.25;;;5.40;99.90;;;;;;5067678;28;20052;-79
2021/12/05 16:23:29;;;;;;;6.90;4.47;;;5.40;99.90;;;;;;5090406;28;20043;-77
2021/12/05 16:26:13;;;;;;;9.10;4.53;;;5.40;99.90;;;;;;5102194;28;20052;-78
2021/12/05 16:28:48;;;;;;;5.28;4.88;;;5.40;99.90;;;;;;5099979;28;20039;-78
2021/12/05 16:31:18;;;;;;;7.60;5.45;;;5.40;99.90;;;;;;5081481;28;20439;-78
2021/12/05 16:33:54;;;;;;;3.70;3.45;;;5.40;99.90;;;;;;5105894;28;20040;-77
2021/12/05 16:36:29;;;;;;;6.47;3.92;;;5.40;99.90;;;;;;5083074;28;20492;-76
2021/12/05 16:38:55;;;;;;;6.82;6.10;;;5.40;99.90;;;;;;5101053;28;20062;-76
2021/12/05 16:41:24;;;;;;;14.77;4.22;;;5.40;99.90;;;;;;5107099;28;20047;-75
2021/12/05 16:43:57;;;;;;;7.38;3.60;;;5.40;99.90;;;;;;5107328;28;20044;-75
2021/12/05 16:46:32;;;;;;;3.88;3.50;;;5.40;99.90;;;;;;5087675;28;20040;-76
2021/12/05 16:49:02;;;;;;;5.93;5.40;;;5.40;99.90;;;;;;5088294;28;20051;-76
2021/12/05 16:51:33;;;;;;;7.95;5.10;;;5.40;99.90;;;;;;5103493;28;20490;-76
2021/12/05 16:54:04;;;;;;;6.32;5.78;;;5.30;99.90;;;;;;5098489;28;20036;-76
2021/12/05 16:57:00;;;;;;;7.32;5.20;;;5.40;99.90;;;;;;5088185;28;20055;-76
2021/12/05 16:59:37;;;;;;;6.75;5.72;;;5.40;99.90;;;;;;5086301;28;20044;-74
2021/12/05 17:02:14;;;;;;;7.55;6.97;;;5.40;99.90;;;;;;5084582;28;20119;-77
2021/12/05 17:04:59;;;;;;;9.10;6.35;;;5.40;99.90;;;;;;5086324;28;20127;-76
2021/12/05 17:07:42;;;;;;;9.95;6.15;;;5.40;99.90;;;;;;5051185;28;20466;-77
2021/12/05 17:10:31;;;;;;;6.82;6.00;;;5.40;99.90;;;;;;5085836;28;20109;-75
2021/12/05 17:13:17;;;;;;;7.25;6.70;;;5.40;99.90;;;;;;5066996;28;20047;-79
2021/12/05 17:15:47;;;;;;;6.80;6.00;;;5.40;99.90;;;;;;5085066;28;20132;-79
2021/12/05 17:18:17;;;;;;;5.70;5.28;;;5.30;99.90;;;;;;5105135;28;20032;-77
2021/12/05 17:20:48;;;;;;;6.90;5.68;;;5.30;99.90;;;;;;5083766;28;20036;-78
2021/12/05 17:23:27;;;;;;;5.45;5.15;;;5.30;99.90;;;;;;5086969;28;20047;-79
2021/12/05 17:25:57;;;;;;;9.85;6.63;;;5.40;99.90;;;;;;5077749;28;20056;-79
2021/12/05 17:28:43;;;;;;;7.30;5.68;;;5.30;99.90;;;;;;5070845;28;20115;-80
2021/12/05 17:31:12;;;;;;;7.55;6.93;;;5.30;99.90;;;;;;5104873;28;20494;-78
2021/12/05 17:33:47;;;;;;;6.57;5.97;;;5.30;99.90;;;;;;5087509;28;20044;-81
2021/12/05 17:36:20;;;;;;;4.75;4.32;;;5.30;99.90;;;;;;5086827;28;20114;-80
2021/12/05 17:38:48;;;;;;;17.75;5.97;;;5.30;99.90;;;;;;5088133;28;20128;-83
2021/12/05 17:41:14;;;;;;;5.10;4.60;;;5.30;99.90;;;;;;5069130;28;20079;-82
2021/12/05 17:43:39;;;;;;;6.57;5.97;;;5.30;99.90;;;;;;5087155;28;20047;-77
2021/12/05 17:46:06;;;;;;;16.95;6.10;;;5.30;99.90;;;;;;5104678;28;20110;-78
2021/12/05 17:48:33;;;;;;;24.08;6.95;;;5.30;99.90;;;;;;5084949;28;20048;-77
2021/12/05 17:51:03;;;;;;;5.43;4.93;;;5.30;99.90;;;;;;5103317;28;20039;-77
2021/12/05 17:53:31;;;;;;;14.00;6.45;;;5.30;99.90;;;;;;5066248;28;20036;-77
2021/12/05 17:56:08;;;;;;;7.90;6.05;;;5.30;99.90;;;;;;5103607;28;20078;-79
2021/12/05 18:03:52;;;;;;;5.82;5.32;;;5.30;99.90;;;;;;5038898;28;20141;-79
2021/12/05 18:06:19;;;;;;;9.32;5.28;;;5.30;99.90;;;;;;5085124;28;20413;-79
2021/12/05 18:08:44;;;;;;;7.03;6.25;;;5.30;99.90;;;;;;5066936;28;20097;-79
2021/12/05 18:11:15;;;;;;;9.48;8.27;;;5.30;99.90;;;;;;5066453;28;20047;-79
2021/12/05 18:13:41;;;;;;;11.85;6.75;;;5.30;99.90;;;;;;5084980;28;20246;-79
2021/12/05 18:16:14;;;;;;;12.80;5.00;;;5.30;99.90;;;;;;5065732;28;20537;-79
2021/12/05 18:18:40;;;;;;;4.70;4.35;;;5.30;99.90;;;;;;5085018;28;20122;-79
2021/12/05 18:21:08;;;;;;;10.63;6.15;;;5.30;99.90;;;;;;5084699;28;20119;-79